Time;durP1;ratioP1;P1;durP2;ratioP2;P2;SDS_P1;SDS_P2;PMS_P1;PMS_P2;Temp;Humidity;BMP_temperature;BMP_pressure;BME280_temperature;BME280_humidity;BME280_pressure;Samples;Min_cycle;Max_cycle;Signal;HPM_P1;HPM_P2
2022/05/14 00:00:51;;;;;;;3.47;1.60;;;;;;;11.60;77.29;100515.34;5058410;28;20312;-62
2022/05/14 00:03:17;;;;;;;2.43;1.40;;;;;;;11.52;77.32;100513.16;5074659;28;20263;-62
2022/05/14 00:05:43;;;;;;;3.37;1.23;;;;;;;11.54;77.74;100513.09;5054957;28;20185;-62
2022/05/14 00:08:09;;;;;;;2.27;1.40;;;;;;;11.61;77.97;100506.72;5054388;28;20209;-62
2022/05/14 00:13:21;;;;;;;4.77;1.50;;;;;;;11.47;78.34;100517.72;5073446;28;20259;-63
2022/05/14 00:15:46;;;;;;;3.37;1.50;;;;;;;11.35;79.96;100526.91;5053194;28;20320;-61
2022/05/14 00:18:11;;;;;;;3.57;1.63;;;;;;;11.27;81.28;100522.13;5054213;28;20265;-61
2022/05/14 00:20:37;;;;;;;2.60;2.17;;;;;;;11.38;80.14;100519.03;5048422;28;20262;-62
2022/05/14 00:23:03;;;;;;;3.93;1.43;;;;;;;11.44;79.90;100520.47;5065850;28;20177;-61
2022/05/14 00:25:29;;;;;;;2.70;1.20;;;;;;;11.42;79.40;100517.13;5054467;28;20198;-61
2022/05/14 00:27:55;;;;;;;3.87;1.53;;;;;;;11.48;79.58;100515.97;5054206;28;20703;-63
2022/05/14 00:30:24;;;;;;;2.03;1.30;;;;;;;11.49;79.54;100507.34;5046869;28;20185;-63
2022/05/14 00:32:51;;;;;;;7.10;1.47;;;;;;;11.46;79.81;100516.03;5067399;28;20173;-63
2022/05/14 00:35:16;;;;;;;5.23;1.87;;;;;;;11.46;80.05;100516.88;5055127;28;20199;-63
2022/05/14 00:37:42;;;;;;;1.60;1.43;;;;;;;11.39;80.58;100507.00;5052911;28;20610;-63
2022/05/14 00:40:13;;;;;;;3.27;1.57;;;;;;;11.33;81.78;100509.88;5045225;28;20241;-63
2022/05/14 00:42:38;;;;;;;1.53;1.33;;;;;;;11.34;81.87;100514.09;5068739;28;20247;-63
2022/05/14 00:45:06;;;;;;;4.87;1.67;;;;;;;11.34;81.17;100516.66;5054655;28;20636;-63
2022/05/14 00:47:35;;;;;;;3.10;1.60;;;;;;;11.38;80.90;100515.63;5053584;28;20263;-62
2022/05/14 00:50:04;;;;;;;3.47;1.70;;;;;;;11.39;80.51;100519.88;5054599;28;20178;-63
2022/05/14 00:52:29;;;;;;;2.77;1.93;;;;;;;11.33;80.80;100520.19;5036458;28;20218;-62
2022/05/14 00:55:03;;;;;;;1.73;1.37;;;;;;;11.21;81.35;100519.91;5049883;28;20547;-63
2022/05/14 00:57:34;;;;;;;5.43;1.87;;;;;;;11.18;82.18;100524.38;5053552;28;20177;-61
2022/05/14 01:00:05;;;;;;;3.70;1.80;;;;;;;11.24;82.06;100521.47;5054056;28;20182;-62
2022/05/14 01:02:30;;;;;;;1.37;1.27;;;;;;;11.25;82.53;100516.25;5043188;28;20736;-63
2022/05/14 01:04:56;;;;;;;6.50;1.60;;;;;;;11.17;82.77;100523.50;5053076;28;20276;-61
2022/05/14 01:07:22;;;;;;;2.63;2.17;;;;;;;11.08;83.15;100518.84;5053092;28;20249;-62
2022/05/14 01:09:55;;;;;;;3.83;1.93;;;;;;;10.98;84.35;100514.13;5053901;28;20268;-62
2022/05/14 01:12:22;;;;;;;4.40;1.73;;;;;;;11.00;84.72;100519.19;5075864;28;20243;-61
2022/05/14 01:14:48;;;;;;;3.17;1.87;;;;;;;10.92;85.37;100517.00;5053542;28;20216;-62
2022/05/14 01:17:13;;;;;;;5.47;2.10;;;;;;;11.04;85.03;100512.16;5053341;28;20247;-61
2022/05/14 01:19:39;;;;;;;5.77;1.90;;;;;;;11.04;84.92;100515.59;5053616;28;20218;-62
2022/05/14 01:22:23;;;;;;;2.03;1.80;;;;;;;11.01;84.44;100505.44;5058776;28;20243;-61
2022/05/14 01:28:05;;;;;;;5.57;1.43;;;;;;;10.95;85.69;100508.31;5053085;28;20279;-61
2022/05/14 01:30:31;;;;;;;4.07;2.03;;;;;;;10.93;86.44;100513.53;5047032;28;20683;-61
2022/05/14 01:33:05;;;;;;;2.23;1.60;;;;;;;10.87;87.44;100507.88;5063898;28;20182;-62
2022/05/14 01:35:35;;;;;;;3.90;1.77;;;;;;;10.76;88.05;100510.97;5053073;28;20177;-62
2022/05/14 01:38:01;;;;;;;5.40;1.90;;;;;;;10.74;89.06;100511.03;5052791;28;20659;-61
2022/05/14 01:40:27;;;;;;;2.57;1.73;;;;;;;10.63;90.42;100513.28;5044891;28;20313;-61
2022/05/14 01:42:53;;;;;;;2.57;1.50;;;;;;;10.60;91.05;100511.69;5068638;28;20260;-61
2022/05/14 01:45:18;;;;;;;1.67;1.43;;;;;;;10.71;90.76;100510.34;5053247;28;20208;-61
2022/05/14 01:47:43;;;;;;;2.70;1.80;;;;;;;10.77;90.09;100512.63;5052491;28;20565;-61
2022/05/14 01:50:09;;;;;;;2.80;1.67;;;;;;;10.71;90.49;100513.75;5038149;28;20235;-61
2022/05/14 01:52:34;;;;;;;2.30;1.63;;;;;;;10.63;91.67;100505.56;5065997;28;20629;-62
2022/05/14 01:54:59;;;;;;;7.13;1.50;;;;;;;10.64;91.88;100512.38;5033264;28;20225;-61
2022/05/14 01:57:24;;;;;;;4.37;1.90;;;;;;;10.54;93.14;100506.03;5032818;28;20626;-61
2022/05/14 01:59:50;;;;;;;3.80;1.60;;;;;;;10.52;93.32;100506.09;5032867;28;20254;-62
2022/05/14 02:02:15;;;;;;;2.30;1.53;;;;;;;10.54;93.24;100496.53;5055109;28;20612;-62
2022/05/14 02:04:40;;;;;;;4.90;1.90;;;;;;;10.51;93.76;100503.59;5032782;28;20180;-61
2022/05/14 02:07:06;;;;;;;5.70;1.97;;;;;;;10.42;94.59;100494.56;5032542;28;20205;-61
2022/05/14 02:09:32;;;;;;;4.33;1.90;;;;;;;10.43;94.84;100501.38;5032818;28;20166;-61
2022/05/14 02:11:57;;;;;;;5.27;1.90;;;;;;;10.55;94.23;100502.53;5052607;28;20770;-61
2022/05/14 02:14:22;;;;;;;3.30;1.67;;;;;;;10.47;94.70;100500.34;5049489;28;20205;-61
2022/05/14 02:16:48;;;;;;;2.27;1.70;;;;;;;10.52;95.11;100495.81;5052265;28;20229;-62
2022/05/14 02:19:13;;;;;;;3.67;2.10;;;;;;;10.58;94.34;100500.66;5051300;28;20173;-61
2022/05/14 02:21:38;;;;;;;4.20;2.17;;;;;;;10.43;95.50;100499.66;5054188;28;20228;-62
2022/05/14 02:24:04;;;;;;;2.63;2.00;;;;;;;10.32;96.82;100494.97;5055594;28;20182;-61
2022/05/14 02:26:30;;;;;;;4.23;2.20;;;;;;;10.24;97.81;100497.06;5050707;28;20560;-62
2022/05/14 02:28:56;;;;;;;5.43;1.80;;;;;;;10.25;98.48;100492.78;5052455;28;20182;-61
2022/05/14 02:31:21;;;;;;;3.40;2.07;;;;;;;10.35;97.58;100491.44;5052116;28;20303;-61
2022/05/14 02:33:47;;;;;;;3.13;2.13;;;;;;;10.44;96.46;100493.63;5057199;28;20272;-62
2022/05/14 02:36:13;;;;;;;2.57;2.00;;;;;;;10.51;95.43;100493.31;5051598;28;20181;-61
2022/05/14 02:38:39;;;;;;;5.17;2.13;;;;;;;10.48;95.33;100496.84;5052368;28;20173;-61
2022/05/14 02:41:06;;;;;;;2.23;1.80;;;;;;;10.40;96.13;100499.78;5049522;28;20270;-61
2022/05/14 02:43:32;;;;;;;5.00;2.07;;;;;;;10.32;96.95;100504.44;5050679;28;20704;-61
2022/05/14 02:45:58;;;;;;;6.30;2.00;;;;;;;10.30;97.32;100503.69;5051849;28;20211;-63
2022/05/14 02:48:23;;;;;;;3.30;1.97;;;;;;;10.13;98.33;100499.31;5040287;28;20190;-63
2022/05/14 02:50:49;;;;;;;7.20;2.40;;;;;;;10.22;98.12;100500.63;5054432;28;20638;-62
2022/05/14 02:53:14;;;;;;;5.83;2.40;;;;;;;10.28;97.24;100501.19;5071952;28;20251;-62
2022/05/14 02:55:39;;;;;;;2.17;1.77;;;;;;;10.27;97.09;100498.66;5051995;28;20181;-62
2022/05/14 02:58:05;;;;;;;2.97;1.80;;;;;;;10.06;98.87;100501.34;5051590;28;20264;-62
2022/05/14 03:00:30;;;;;;;2.20;1.70;;;;;;;10.03;99.63;100506.59;5034729;28;20315;-62
2022/05/14 03:02:55;;;;;;;4.67;2.23;;;;;;;10.05;99.66;100509.09;5063585;28;20201;-63
2022/05/14 03:05:22;;;;;;;4.67;2.00;;;;;;;10.01;99.61;100509.25;5067162;28;20268;-62
2022/05/14 03:07:48;;;;;;;2.80;1.80;;;;;;;10.06;99.30;100510.78;5051459;28;20203;-62
2022/05/14 03:10:13;;;;;;;3.27;2.23;;;;;;;9.97;99.36;100509.47;5043790;28;20178;-60
2022/05/14 03:12:40;;;;;;;8.60;3.20;;;;;;;9.94;99.36;100507.88;5080725;28;20184;-61
2022/05/14 03:15:07;;;;;;;5.90;2.40;;;;;;;9.93;99.23;100508.75;5042103;28;20193;-62
2022/05/14 03:17:35;;;;;;;3.80;2.33;;;;;;;9.88;99.95;100508.13;5061178;28;20222;-62
2022/05/14 03:20:06;;;;;;;4.70;2.60;;;;;;;9.88;99.71;100513.28;5045677;28;20177;-62
2022/05/14 03:22:32;;;;;;;8.43;2.90;;;;;;;9.85;99.50;100511.69;5040655;28;20221;-61
2022/05/14 03:24:57;;;;;;;3.37;2.23;;;;;;;9.92;99.12;100517.38;5051681;28;20170;-61
2022/05/14 03:27:23;;;;;;;4.23;2.33;;;;;;;9.97;98.46;100518.03;5051049;28;20212;-62
2022/05/14 03:29:48;;;;;;;4.87;2.67;;;;;;;9.91;98.46;100518.28;5050571;28;20175;-61
2022/05/14 03:32:14;;;;;;;3.63;2.53;;;;;;;9.84;99.13;100522.84;5042824;28;20216;-61
2022/05/14 03:34:39;;;;;;;4.60;1.97;;;;;;;9.82;99.92;100516.13;5058369;28;20219;-60
2022/05/14 03:37:04;;;;;;;8.53;2.90;;;;;;;9.72;100.00;100525.16;5057914;28;20185;-61
2022/05/14 03:39:30;;;;;;;2.57;2.20;;;;;;;9.63;100.00;100516.94;5056660;28;20177;-62
2022/05/14 03:41:55;;;;;;;2.83;2.23;;;;;;;9.60;100.00;100519.66;5061951;28;20705;-62
2022/05/14 03:44:21;;;;;;;3.00;2.10;;;;;;;9.62;100.00;100525.53;5055407;28;20181;-62
2022/05/14 03:46:46;;;;;;;3.87;2.50;;;;;;;9.61;100.00;100529.03;5046131;28;20317;-61
2022/05/14 03:49:12;;;;;;;6.03;2.30;;;;;;;9.63;100.00;100531.53;5038259;28;20174;-62
2022/05/14 03:51:37;;;;;;;3.77;2.07;;;;;;;9.66;100.00;100532.22;5052809;28;20717;-62
2022/05/14 03:54:04;;;;;;;5.37;2.13;;;;;;;9.41;100.00;100531.63;5044800;28;20174;-62
2022/05/14 03:56:30;;;;;;;5.37;2.80;;;;;;;9.56;100.00;100540.41;5036339;28;20188;-62
2022/05/14 03:58:55;;;;;;;9.07;2.43;;;;;;;9.54;100.00;100537.91;5038071;28;20185;-62
2022/05/14 04:01:20;;;;;;;2.63;2.30;;;;;;;9.65;100.00;100532.28;5048128;28;20226;-62
2022/05/14 04:03:46;;;;;;;3.10;2.30;;;;;;;9.62;100.00;100533.25;5048809;28;20259;-62
2022/05/14 04:06:11;;;;;;;4.27;2.43;;;;;;;9.67;100.00;100535.63;5036109;28;20272;-62
2022/05/14 04:08:37;;;;;;;2.53;2.23;;;;;;;9.58;100.00;100538.59;5037758;28;20514;-61
2022/05/14 04:11:03;;;;;;;5.60;2.50;;;;;;;9.66;100.00;100534.81;5043735;28;20220;-63
2022/05/14 04:13:28;;;;;;;2.90;2.10;;;;;;;9.67;100.00;100551.03;5060811;28;20197;-62
2022/05/14 04:15:54;;;;;;;4.20;2.10;;;;;;;9.70;100.00;100543.22;5057720;28;20281;-62
2022/05/14 04:18:24;;;;;;;4.27;2.20;;;;;;;9.77;100.00;100542.00;5057003;28;20180;-62
2022/05/14 04:20:55;;;;;;;9.17;2.40;;;;;;;9.85;100.00;100544.25;5040069;28;20304;-62
2022/05/14 04:23:22;;;;;;;2.77;2.10;;;;;;;9.93;100.00;100549.06;5055622;28;20268;-62
2022/05/14 04:25:49;;;;;;;4.23;2.93;;;;;;;9.95;100.00;100547.25;5037289;28;20720;-62
2022/05/14 04:28:15;;;;;;;2.97;2.60;;;;;;;10.04;100.00;100548.59;5036951;28;20232;-62
2022/05/14 04:30:40;;;;;;;3.67;2.03;;;;;;;10.09;100.00;100550.03;5037098;28;20261;-62
2022/05/14 04:33:06;;;;;;;4.10;2.53;;;;;;;9.95;100.00;100547.25;5059500;28;20209;-62
2022/05/14 04:35:31;;;;;;;2.23;1.83;;;;;;;9.85;100.00;100550.22;5039838;28;20182;-62
2022/05/14 04:37:56;;;;;;;5.57;2.30;;;;;;;10.06;100.00;100546.75;5056998;28;20614;-63
2022/05/14 04:40:22;;;;;;;3.53;2.20;;;;;;;10.25;100.00;100550.16;5048104;28;20230;-63
2022/05/14 04:42:47;;;;;;;2.60;2.30;;;;;;;10.36;100.00;100552.28;5057595;28;20186;-62
2022/05/14 04:45:12;;;;;;;3.70;2.60;;;;;;;10.45;99.37;100556.16;5049700;28;20271;-62
2022/05/14 04:47:41;;;;;;;4.73;2.50;;;;;;;10.58;98.11;100561.53;5052299;28;20617;-61
2022/05/14 04:50:07;;;;;;;4.87;2.40;;;;;;;10.69;97.24;100561.88;5044996;28;20182;-62
2022/05/14 04:52:32;;;;;;;3.53;2.23;;;;;;;10.70;96.72;100562.72;5068736;28;20178;-63
2022/05/14 04:54:58;;;;;;;5.00;2.93;;;;;;;10.79;95.77;100560.53;5069461;28;20642;-62
2022/05/14 04:57:23;;;;;;;5.03;2.30;;;;;;;10.95;94.28;100557.22;5053624;28;20189;-62
2022/05/14 04:59:48;;;;;;;5.07;2.20;;;;;;;11.01;93.25;100561.25;5053579;28;20259;-62
2022/05/14 05:04:58;;;;;;;3.90;2.37;;;;;;;11.02;93.94;100568.06;5049079;28;20548;-63
2022/05/14 05:07:23;;;;;;;4.53;2.53;;;;;;;11.10;94.34;100566.78;5053264;28;20193;-62
2022/05/14 05:09:48;;;;;;;4.43;2.27;;;;;;;11.29;93.08;100563.28;5053640;28;20665;-62
2022/05/14 05:12:14;;;;;;;3.70;2.60;;;;;;;11.33;92.99;100569.13;5075780;28;20230;-62
2022/05/14 05:14:41;;;;;;;6.67;3.03;;;;;;;11.54;91.77;100562.88;5053394;28;20237;-62
2022/05/14 05:17:07;;;;;;;4.87;2.70;;;;;;;11.71;89.99;100574.88;5052739;28;20221;-62
2022/05/14 05:19:32;;;;;;;3.73;2.43;;;;;;;11.75;88.08;100566.06;5053305;28;20184;-63
2022/05/14 05:21:58;;;;;;;4.23;2.93;;;;;;;11.67;87.68;100563.09;5058131;28;20580;-62
2022/05/14 05:24:23;;;;;;;6.77;2.80;;;;;;;11.82;87.92;100574.34;5068944;28;20220;-63
2022/05/14 05:26:48;;;;;;;4.73;2.77;;;;;;;11.96;86.82;100568.47;5052816;28;20189;-63
2022/05/14 05:29:14;;;;;;;5.33;2.90;;;;;;;12.23;85.21;100566.16;5052310;28;20174;-63
2022/05/14 05:31:39;;;;;;;6.53;2.80;;;;;;;12.43;84.00;100574.59;5055305;28;20240;-63
2022/05/14 05:34:05;;;;;;;3.10;2.80;;;;;;;12.54;83.56;100573.97;5056261;28;20218;-62
2022/05/14 05:36:31;;;;;;;6.67;2.80;;;;;;;12.47;81.71;100576.06;5052918;28;20178;-62
2022/05/14 05:38:57;;;;;;;3.67;2.40;;;;;;;12.79;80.67;100572.59;5052242;28;20181;-63
2022/05/14 05:41:22;;;;;;;5.77;3.47;;;;;;;12.89;79.93;100576.34;5055146;28;20276;-62
2022/05/14 05:43:48;;;;;;;4.73;2.30;;;;;;;13.18;78.68;100573.84;5037250;28;20184;-62
2022/05/14 05:46:14;;;;;;;5.53;2.77;;;;;;;13.49;77.25;100583.22;5033114;28;20254;-63
2022/05/14 05:48:40;;;;;;;9.47;2.80;;;;;;;13.64;75.76;100568.56;5031943;28;20174;-63
2022/05/14 05:51:06;;;;;;;8.73;3.20;;;;;;;13.61;75.76;100583.44;5039313;28;20337;-63
2022/05/14 05:59:00;;;;;;;4.30;2.20;;;;;;;14.05;72.98;100569.56;5046418;28;20269;-71
2022/05/14 06:01:26;;;;;;;7.20;2.63;;;;;;;14.04;72.44;100578.25;5051117;28;20700;-70
2022/05/14 06:03:51;;;;;;;6.83;2.60;;;;;;;14.30;73.73;100581.81;5061715;28;20211;-71
2022/05/14 06:06:17;;;;;;;4.90;2.63;;;;;;;14.16;71.37;100584.44;5049025;28;20255;-70
2022/05/14 06:08:43;;;;;;;3.60;2.90;;;;;;;14.30;70.65;100580.97;5051768;28;20590;-70
2022/05/14 06:11:08;;;;;;;4.80;2.23;;;;;;;14.42;70.65;100585.38;5051886;28;20216;-71
2022/05/14 06:13:34;;;;;;;6.80;2.73;;;;;;;14.87;68.65;100590.34;5066030;28;20229;-70
2022/05/14 06:16:00;;;;;;;3.73;2.40;;;;;;;15.32;66.53;100597.81;5051406;28;20751;-71
2022/05/14 06:18:26;;;;;;;4.23;2.10;;;;;;;15.39;65.36;100599.03;5043002;28;20178;-70
2022/05/14 06:20:52;;;;;;;7.83;3.20;;;;;;;15.56;64.18;100592.72;5054563;28;20219;-70
2022/05/14 06:23:17;;;;;;;3.97;2.27;;;;;;;15.62;64.41;100594.88;5067837;28;20597;-69
2022/05/14 06:25:43;;;;;;;4.27;2.30;;;;;;;15.81;64.19;100596.22;5032022;28;20189;-70
2022/05/14 06:28:08;;;;;;;8.17;2.20;;;;;;;15.93;62.82;100592.00;5031261;28;20569;-70
2022/05/14 06:30:33;;;;;;;3.87;2.43;;;;;;;16.33;59.75;100599.56;5040040;28;20216;-70
2022/05/14 06:33:06;;;;;;;4.83;2.43;;;;;;;16.48;60.41;100599.44;5059560;28;20178;-71
2022/05/14 06:35:32;;;;;;;5.10;2.07;;;;;;;17.04;58.51;100609.25;5035486;28;20700;-70
2022/05/14 06:37:59;;;;;;;4.73;2.40;;;;;;;17.80;54.47;100608.78;5044293;28;20174;-70
2022/05/14 06:40:24;;;;;;;5.10;1.87;;;;;;;18.83;52.49;100603.28;5046971;28;20274;-71
2022/05/14 06:42:49;;;;;;;7.37;2.10;;;;;;;19.21;48.88;100601.13;5058040;28;20680;-71
2022/05/14 06:45:15;;;;;;;5.50;2.10;;;;;;;19.23;48.50;100601.81;5032158;28;20189;-71
2022/05/14 06:47:40;;;;;;;3.70;1.73;;;;;;;20.21;46.26;100599.66;5062837;28;20209;-71
2022/05/14 06:50:06;;;;;;;4.57;1.70;;;;;;;21.28;43.03;100608.47;5031117;28;20263;-70
2022/05/14 06:52:32;;;;;;;4.00;2.07;;;;;;;23.07;40.20;100609.00;5065730;28;20193;-75
2022/05/14 06:54:59;;;;;;;4.10;1.50;;;;;;;24.62;36.68;100609.00;5031962;28;20513;-75
2022/05/14 06:57:24;;;;;;;2.80;1.67;;;;;;;25.93;33.85;100609.78;5066625;28;20235;-75
2022/05/14 06:59:50;;;;;;;4.72;1.83;;;;;;;26.07;34.57;100616.16;5059853;28;20567;-75
2022/05/14 07:02:17;;;;;;;4.30;1.88;;;;;;;25.39;34.80;100616.56;5042978;28;20695;-74
2022/05/14 07:07:27;;;;;;;5.35;1.95;;;;;;;26.31;32.80;100620.47;5038131;28;20224;-75
2022/05/14 07:09:54;;;;;;;3.20;1.80;;;;;;;27.47;30.34;100622.97;5039834;28;20540;-75
2022/05/14 07:12:19;;;;;;;3.78;1.60;;;;;;;27.57;29.99;100621.91;5073591;28;20227;-64
2022/05/14 07:14:45;;;;;;;5.78;1.73;;;;;;;27.94;28.95;100620.94;5065973;28;20271;-61
2022/05/14 07:17:11;;;;;;;6.45;2.13;;;;;;;29.52;27.20;100622.75;5055920;28;20240;-62
2022/05/14 07:19:37;;;;;;;5.10;1.83;;;;;;;30.49;26.03;100630.63;5047488;28;20205;-62
2022/05/14 07:22:03;;;;;;;6.53;1.70;;;;;;;29.98;26.74;100625.78;5072746;28;20273;-61
2022/05/14 07:24:29;;;;;;;2.72;1.55;;;;;;;30.38;26.53;100623.25;5051478;28;20173;-61
2022/05/14 07:27:02;;;;;;;7.50;1.90;;;;;;;31.04;25.95;100632.25;5050838;28;20272;-60
2022/05/14 07:29:29;;;;;;;3.42;1.67;;;;;;;30.93;25.92;100625.72;5051072;28;20286;-61
2022/05/14 07:31:54;;;;;;;5.65;1.65;;;;;;;30.46;25.85;100628.34;5033516;28;20362;-61
2022/05/14 07:34:20;;;;;;;6.22;1.95;;;;;;;31.50;24.69;100627.88;5050636;28;20264;-61
2022/05/14 07:36:55;;;;;;;4.25;1.70;;;;;;;30.42;24.88;100635.88;5046393;28;20211;-62
2022/05/14 07:39:25;;;;;;;3.17;1.58;;;;;;;29.46;26.76;100629.63;5051256;28;20180;-60
2022/05/14 07:41:54;;;;;;;4.25;1.60;;;;;;;30.27;26.81;100629.97;5069815;28;20223;-60
2022/05/14 07:44:24;;;;;;;2.72;1.45;;;;;;;30.65;26.08;100629.44;5053340;28;20188;-61
2022/05/14 07:46:49;;;;;;;4.63;1.85;;;;;;;30.03;27.22;100626.00;5050768;28;20721;-61
2022/05/14 07:49:16;;;;;;;6.22;1.80;;;;;;;29.55;27.13;100626.84;5051203;28;20272;-61
2022/05/14 07:51:42;;;;;;;3.78;1.70;;;;;;;30.68;25.76;100630.84;5067369;28;20234;-61
2022/05/14 07:54:08;;;;;;;8.07;1.90;;;;;;;30.73;25.48;100628.41;5056860;28;20177;-61
2022/05/14 07:56:33;;;;;;;3.60;1.70;;;;;;;30.34;26.00;100629.97;5066063;28;20177;-61
2022/05/14 07:58:59;;;;;;;4.57;1.90;;;;;;;31.33;25.00;100622.22;5050826;28;20605;-61
2022/05/14 08:01:24;;;;;;;4.32;1.50;;;;;;;31.10;24.78;100623.50;5062903;28;20236;-60
2022/05/14 08:03:51;;;;;;;3.67;1.52;;;;;;;31.14;24.65;100623.91;5060996;28;20232;-61
2022/05/14 08:06:17;;;;;;;4.13;1.95;;;;;;;29.87;25.58;100629.81;5050638;28;20209;-61
2022/05/14 08:08:43;;;;;;;8.05;1.70;;;;;;;28.59;27.68;100621.03;5050993;28;20652;-60
2022/05/14 08:11:09;;;;;;;4.32;1.85;;;;;;;30.06;26.71;100633.59;5058357;28;20706;-61
2022/05/14 08:13:36;;;;;;;4.47;1.92;;;;;;;29.87;26.90;100620.03;5064496;28;20193;-61
2022/05/14 08:16:02;;;;;;;5.03;2.00;;;;;;;30.21;26.03;100630.75;5050704;28;20249;-62
2022/05/14 08:18:29;;;;;;;4.55;1.73;;;;;;;30.25;25.57;100624.03;5053487;28;20632;-62
2022/05/14 08:20:54;;;;;;;6.40;2.03;;;;;;;30.06;26.35;100625.63;5051375;28;20248;-61
2022/05/14 08:26:03;;;;;;;5.82;1.85;;;;;;;28.72;27.09;100622.19;5054422;28;20235;-62
2022/05/14 08:28:30;;;;;;;5.80;2.05;;;;;;;28.64;28.53;100617.78;5054646;28;20252;-61
2022/05/14 08:30:56;;;;;;;5.82;1.98;;;;;;;30.04;26.18;100623.19;5049460;28;20317;-61
2022/05/14 08:33:21;;;;;;;3.00;1.50;;;;;;;31.48;24.98;100622.78;5050220;28;20265;-61
2022/05/14 08:35:47;;;;;;;5.40;1.55;;;;;;;30.07;25.13;100621.97;5083276;28;20714;-62
2022/05/14 08:38:14;;;;;;;5.00;2.40;;;;;;;31.18;24.84;100617.94;5054109;28;20196;-62
2022/05/14 08:40:59;;;;;;;3.45;1.38;;;;;;;30.36;25.28;100614.66;5048652;28;20296;-65
2022/05/14 08:44:07;;;;;;;7.00;1.77;;;;;;;30.42;25.04;100601.38;5063068;28;20266;-58
2022/05/14 08:46:35;;;;;;;3.95;1.63;;;;;;;29.18;26.48;100612.94;4972591;28;20255;-60
2022/05/14 08:49:27;;;;;;;7.28;1.80;;;;;;;29.71;26.33;100609.78;4973353;28;20181;-58
2022/05/14 08:51:52;;;;;;;2.53;1.50;;;;;;;31.26;23.67;100606.28;4963208;28;20253;-58
2022/05/14 08:54:18;;;;;;;5.07;1.42;;;;;;;30.33;24.50;100605.28;4973236;28;20593;-58
2022/05/14 08:57:00;;;;;;;2.97;1.25;;;;;;;29.71;26.03;100609.78;4956472;28;20207;-57
2022/05/14 08:59:44;;;;;;;4.05;1.67;;;;;;;30.93;24.56;100599.16;4972994;28;20198;-58
2022/05/14 09:02:20;;;;;;;6.78;1.67;;;;;;;32.41;23.17;100614.56;4963347;28;20717;-65
2022/05/14 09:04:47;;;;;;;3.25;1.58;;;;;;;32.81;22.23;100608.97;4973165;28;20184;-66
2022/05/14 09:07:13;;;;;;;4.38;1.75;;;;;;;31.17;23.06;100602.22;4972552;28;20204;-62
2022/05/14 09:09:52;;;;;;;5.80;1.75;;;;;;;29.82;25.21;100608.38;4972515;28;20184;-63
2022/05/14 09:12:22;;;;;;;7.47;1.45;;;;;;;32.13;23.62;100607.78;4963228;28;20646;-65
2022/05/14 09:14:53;;;;;;;3.60;1.60;;;;;;;31.81;23.21;100607.75;4956341;28;20304;-65
2022/05/14 09:17:21;;;;;;;4.32;1.27;;;;;;;32.63;22.16;100615.03;5004511;28;20264;-66
2022/05/14 09:19:50;;;;;;;2.35;1.30;;;;;;;32.70;22.31;100605.13;5060541;28;20197;-65
2022/05/14 09:22:44;;;;;;;3.70;1.50;;;;;;;32.48;22.88;100615.34;5076792;28;20238;-63
2022/05/14 09:25:19;;;;;;;4.93;1.50;;;;;;;32.06;23.74;100605.16;5044334;28;20185;-56
2022/05/14 09:28:12;;;;;;;4.35;1.88;;;;;;;30.30;25.36;100596.91;5052176;28;20200;-56
2022/05/14 09:30:45;;;;;;;3.10;1.40;;;;;;;31.33;23.86;100595.63;5042608;28;20260;-54
2022/05/14 09:33:27;;;;;;;5.22;1.60;;;;;;;31.95;23.14;100598.66;5059162;28;20248;-56
2022/05/14 09:35:58;;;;;;;3.13;1.52;;;;;;;32.02;23.14;100601.28;5038966;28;20575;-56
2022/05/14 09:38:26;;;;;;;7.80;1.92;;;;;;;33.08;21.57;100603.34;5053109;28;20178;-55
2022/05/14 09:40:54;;;;;;;4.60;1.20;;;;;;;32.53;22.65;100593.41;5048972;28;20701;-55
2022/05/14 09:43:26;;;;;;;2.92;1.50;;;;;;;33.06;22.37;100594.75;5061902;28;20195;-55
2022/05/14 09:46:04;;;;;;;8.07;1.90;;;;;;;34.14;21.37;100604.94;5052070;28;20222;-56
2022/05/14 09:48:51;;;;;;;3.88;1.58;;;;;;;34.47;19.93;100600.97;5053101;28;20291;-56
2022/05/14 09:51:33;;;;;;;2.92;1.30;;;;;;;34.42;20.35;100613.19;5060967;28;20225;-56
2022/05/14 09:54:21;;;;;;;6.13;1.60;;;;;;;33.61;21.91;100605.44;5056923;28;20208;-59
2022/05/14 09:57:01;;;;;;;9.35;1.73;;;;;;;34.20;21.16;100602.19;5052375;28;20200;-60
2022/05/14 09:59:52;;;;;;;5.78;1.73;;;;;;;33.46;21.29;100594.34;5052444;28;20231;-60
2022/05/14 10:02:33;;;;;;;4.07;1.33;;;;;;;30.87;23.87;100589.38;5030030;28;20225;-58
2022/05/14 10:05:11;;;;;;;1.95;1.33;;;;;;;31.56;23.34;100584.50;5051388;28;20268;-58
2022/05/14 10:07:55;;;;;;;2.58;1.33;;;;;;;32.86;21.44;100584.31;5050260;28;20193;-58
2022/05/14 10:10:57;;;;;;;6.40;1.90;;;;;;;29.23;25.30;100589.34;5044406;28;20208;-58
2022/05/14 10:13:54;;;;;;;5.28;1.48;;;;;;;30.31;24.65;100580.75;5060600;28;20214;-59
2022/05/14 10:16:36;;;;;;;2.17;1.25;;;;;;;33.93;21.83;100583.91;5051812;28;20267;-58
2022/05/14 10:19:29;;;;;;;6.18;1.67;;;;;;;34.34;21.42;100591.31;5052318;28;20664;-61
2022/05/14 10:22:23;;;;;;;2.65;1.30;;;;;;;34.59;20.04;100585.78;5056480;28;20778;-59
2022/05/14 10:27:47;;;;;;;2.83;1.20;;;;;;;34.61;20.94;100580.19;5047995;28;20221;-59
2022/05/14 10:30:22;;;;;;;5.35;1.23;;;;;;;34.29;19.90;100580.50;5035757;28;20556;-59
2022/05/14 10:33:06;;;;;;;4.72;1.15;;;;;;;34.59;19.88;100585.78;5078595;28;20185;-59
2022/05/14 10:35:54;;;;;;;3.33;1.38;;;;;;;34.50;19.75;100585.31;5051970;28;20185;-60
2022/05/14 10:38:34;;;;;;;5.32;1.58;;;;;;;33.56;19.81;100583.97;5050381;28;20184;-59
2022/05/14 10:41:04;;;;;;;2.78;1.20;;;;;;;31.54;21.69;100570.63;5048244;28;20224;-59
2022/05/14 10:43:43;;;;;;;2.65;1.42;;;;;;;27.98;26.12;100577.28;5050052;28;20184;-60
2022/05/14 10:46:17;;;;;;;5.78;1.33;;;;;;;26.89;30.58;100564.63;5050145;28;20188;-58
2022/05/14 10:49:13;;;;;;;3.60;1.42;;;;;;;25.24;32.01;100566.38;5050465;28;20188;-59
2022/05/14 10:51:46;;;;;;;5.32;1.60;;;;;;;25.13;31.83;100556.19;5053391;28;20312;-59
2022/05/14 10:54:15;;;;;;;4.80;2.20;;;;;;;24.91;32.78;100558.53;5050265;28;20264;-58
2022/05/14 10:56:56;;;;;;;4.22;1.67;;;;;;;24.58;33.58;100557.72;5049806;28;20181;-58
2022/05/14 10:59:41;;;;;;;6.72;1.10;;;;;;;24.63;34.37;100558.88;5050473;28;20173;-60
2022/05/14 11:02:13;;;;;;;1.83;1.08;;;;;;;24.76;34.16;100549.69;5012969;28;20740;-59
2022/05/14 11:04:38;;;;;;;2.97;1.50;;;;;;;24.93;34.17;100553.94;5030502;28;20221;-59
2022/05/14 11:07:10;;;;;;;3.20;1.20;;;;;;;24.74;32.66;100546.41;5031322;28;20669;-59
2022/05/14 11:09:35;;;;;;;6.67;1.80;;;;;;;24.52;33.14;100548.66;5029669;28;20174;-57
2022/05/14 11:12:04;;;;;;;4.77;1.43;;;;;;;23.88;32.51;100540.50;5052368;28;20669;-57
2022/05/14 11:14:47;;;;;;;3.17;1.63;;;;;;;23.64;35.40;100542.91;5046529;28;20198;-58
2022/05/14 11:17:34;;;;;;;3.33;1.27;;;;;;;23.74;34.91;100542.78;5039309;28;20348;-58
2022/05/14 11:20:02;;;;;;;3.17;1.00;;;;;;;23.87;33.78;100538.88;5049809;28;20230;-57
2022/05/14 11:22:33;;;;;;;1.53;1.13;;;;;;;23.91;33.94;100533.13;5023454;28;20225;-59
2022/05/14 11:25:13;;;;;;;4.07;1.07;;;;;;;23.61;32.72;100534.53;5049810;28;20265;-58
2022/05/14 11:27:39;;;;;;;3.13;1.20;;;;;;;23.64;32.24;100521.91;5032537;28;20258;-58
2022/05/14 11:30:07;;;;;;;3.43;1.40;;;;;;;23.68;34.18;100527.66;5030886;28;20633;-58
2022/05/14 11:32:45;;;;;;;2.40;1.50;;;;;;;23.85;33.37;100529.34;5055695;28;20312;-59
2022/05/14 11:35:11;;;;;;;4.90;1.43;;;;;;;24.14;33.10;100533.38;5051188;28;20172;-59
2022/05/14 11:37:43;;;;;;;4.83;1.93;;;;;;;23.99;34.18;100527.94;5050144;28;20189;-57
2022/05/14 11:40:20;;;;;;;3.60;1.43;;;;;;;23.83;34.28;100519.97;5041676;28;20192;-58
2022/05/14 11:42:48;;;;;;;3.47;1.30;;;;;;;24.00;34.55;100515.59;5066395;28;20646;-59
2022/05/14 11:45:15;;;;;;;3.77;1.30;;;;;;;23.94;32.47;100516.25;5049872;28;20692;-58
2022/05/14 11:48:17;;;;;;;5.30;1.70;;;;;;;23.79;34.05;100521.25;5048992;28;20197;-58
2022/05/14 11:50:50;;;;;;;1.60;1.20;;;;;;;22.98;33.87;100521.53;5039435;28;20363;-58
2022/05/14 11:53:32;;;;;;;3.27;1.20;;;;;;;23.19;35.10;100515.94;5060663;28;20181;-58
2022/05/14 11:56:07;;;;;;;3.67;1.60;;;;;;;23.48;35.52;100521.81;5053638;28;20295;-59